Terminal Aerodrome Forecast
Issued by NWS

Home | Current Version | Previous Version | Text Only | Print | Product List | Glossary On
Versions: 1 2 3 4 5 6 7 8 9 10 11 12 13 14 15 16 17 18 19 20 21 22 23 24 25 26 27 28 29 30 31 32 33 34 35 36 37 38 39 40
000
FTUS43 KDMX 200848 AAA
TAFMCW
TAF AMD
KMCW 200848Z 2009/2106 16008KT 4SM BR OVC005
      TEMPO 2009/2011 3/4SM BR OVC003
     FM201600 17008KT 6SM BR OVC010
     FM210000 17007KT 6SM BR OVC015=

USA.gov is the U.S. government's official web portal to all federal, state and local government web resources and services.